Time;durP1;ratioP1;P1;durP2;ratioP2;P2;SDS_P1;SDS_P2;PMS_P1;PMS_P2;Temp;Humidity;BMP_temperature;BMP_pressure;BME280_temperature;BME280_humidity;BME280_pressure;Samples;Min_cycle;Max_cycle;Signal;HPM_P1;HPM_P2
2021/05/29 00:01:24;;;;;;;4.10;2.95;;;12.40;75.60;;;;;;5093963;28;20072;-37
2021/05/29 00:03:50;;;;;;;6.05;3.70;;;12.30;76.10;;;;;;5093940;28;20083;-37
2021/05/29 00:06:17;;;;;;;7.60;4.20;;;12.30;76.20;;;;;;5093721;28;20515;-36
2021/05/29 00:08:44;;;;;;;6.97;4.60;;;12.20;76.70;;;;;;5093337;28;20028;-37
2021/05/29 00:11:10;;;;;;;6.32;3.83;;;12.20;76.70;;;;;;5093455;28;20027;-37
2021/05/29 00:13:37;;;;;;;6.20;3.55;;;12.20;76.50;;;;;;5093507;28;20024;-37
2021/05/29 00:16:03;;;;;;;4.32;3.45;;;12.20;76.50;;;;;;5093531;28;20024;-36
2021/05/29 00:18:29;;;;;;;5.40;3.83;;;12.20;76.70;;;;;;5093154;28;20574;-36
2021/05/29 00:20:55;;;;;;;7.53;3.92;;;12.10;76.90;;;;;;5091905;28;20028;-36
2021/05/29 00:23:21;;;;;;;6.85;3.47;;;12.10;76.90;;;;;;5093386;28;20032;-36
2021/05/29 00:25:47;;;;;;;4.43;3.58;;;11.90;77.50;;;;;;5093316;28;20032;-36
2021/05/29 00:28:14;;;;;;;7.25;4.00;;;11.80;77.80;;;;;;5091833;28;20028;-36
2021/05/29 00:30:41;;;;;;;4.63;3.13;;;11.90;77.70;;;;;;5093061;28;20047;-36
2021/05/29 00:33:07;;;;;;;7.32;3.83;;;11.80;78.20;;;;;;5093058;28;20113;-36
2021/05/29 00:35:33;;;;;;;3.38;3.08;;;11.80;78.40;;;;;;5093051;28;20035;-35
2021/05/29 00:37:58;;;;;;;4.97;3.53;;;11.70;79.00;;;;;;5094196;28;20468;-37
2021/05/29 00:40:24;;;;;;;4.80;3.28;;;11.60;79.90;;;;;;5097001;28;20031;-37
2021/05/29 00:42:50;;;;;;;9.10;4.47;;;11.50;80.20;;;;;;5096931;28;20039;-36
2021/05/29 00:45:16;;;;;;;6.30;4.40;;;11.50;80.10;;;;;;5097251;28;20455;-36
2021/05/29 00:47:42;;;;;;;5.65;4.13;;;11.60;79.90;;;;;;5096990;28;20060;-36
2021/05/29 00:50:10;;;;;;;7.43;3.70;;;11.50;79.70;;;;;;5096814;28;20021;-36
2021/05/29 00:52:36;;;;;;;3.88;3.45;;;11.80;78.50;;;;;;5095478;28;20028;-37
2021/05/29 00:55:08;;;;;;;4.75;3.83;;;11.80;78.00;;;;;;5096537;28;20027;-36
2021/05/29 00:57:36;;;;;;;5.18;4.03;;;11.80;78.10;;;;;;5095927;28;20032;-36
2021/05/29 01:00:04;;;;;;;8.65;3.95;;;11.80;78.00;;;;;;5096693;28;20104;-36
2021/05/29 01:02:30;;;;;;;4.65;3.88;;;11.60;78.70;;;;;;5096319;28;20043;-37
2021/05/29 01:04:56;;;;;;;5.40;4.32;;;11.50;79.00;;;;;;5096579;28;20020;-36
2021/05/29 01:07:21;;;;;;;8.10;4.43;;;11.50;79.10;;;;;;5096202;28;20033;-36
2021/05/29 01:09:47;;;;;;;6.07;4.40;;;11.30;79.90;;;;;;5094999;28;20357;-36
2021/05/29 01:12:17;;;;;;;8.95;5.85;;;11.40;79.80;;;;;;5096343;28;20024;-37
2021/05/29 01:15:16;;;;;;;9.13;5.05;;;11.30;80.20;;;;;;5096597;28;20392;-36
2021/05/29 01:17:35;;;;;;;5.03;3.88;;;11.30;80.20;;;;;;5094006;28;20032;-36
2021/05/29 01:20:02;;;;;;;6.22;4.45;;;11.30;80.70;;;;;;5096159;28;20042;-36
2021/05/29 01:22:34;;;;;;;5.55;4.32;;;11.10;81.20;;;;;;5096014;28;20051;-35
2021/05/29 01:25:05;;;;;;;5.80;4.45;;;10.80;82.00;;;;;;5096101;28;20035;-36
2021/05/29 01:27:30;;;;;;;5.32;4.68;;;10.80;82.20;;;;;;5096274;28;20103;-36
2021/05/29 01:29:57;;;;;;;9.00;4.68;;;11.10;81.50;;;;;;5096169;28;20062;-36
2021/05/29 01:32:32;;;;;;;5.68;4.15;;;11.10;81.40;;;;;;5096345;28;20024;-37
2021/05/29 01:34:59;;;;;;;7.05;5.47;;;11.00;82.10;;;;;;5096280;28;20112;-36
2021/05/29 01:37:25;;;;;;;6.65;5.32;;;10.90;82.70;;;;;;5095408;28;20020;-37
2021/05/29 01:39:52;;;;;;;7.65;5.18;;;10.80;83.20;;;;;;5096209;28;20016;-36
2021/05/29 01:42:19;;;;;;;7.75;5.90;;;10.90;83.20;;;;;;5095728;28;20020;-35
2021/05/29 01:44:46;;;;;;;9.60;6.78;;;10.90;83.20;;;;;;5095553;28;20110;-36
2021/05/29 01:47:12;;;;;;;6.40;5.70;;;11.10;82.80;;;;;;5095894;28;20074;-36
2021/05/29 01:49:37;;;;;;;8.65;5.45;;;11.10;82.90;;;;;;5094810;28;20372;-35
2021/05/29 01:52:03;;;;;;;7.43;5.93;;;11.00;83.30;;;;;;5095467;28;20028;-35
2021/05/29 01:54:29;;;;;;;11.73;6.43;;;11.00;83.50;;;;;;5095974;28;20020;-36
2021/05/29 01:56:56;;;;;;;7.90;6.20;;;11.00;83.60;;;;;;5095343;28;20530;-36
2021/05/29 01:59:22;;;;;;;8.13;6.30;;;11.00;83.60;;;;;;5095257;28;20384;-36
2021/05/29 02:01:48;;;;;;;10.60;6.15;;;11.00;83.60;;;;;;5095226;28;20027;-35
2021/05/29 02:04:14;;;;;;;7.88;6.22;;;10.90;83.90;;;;;;5095164;28;20032;-42
2021/05/29 02:06:39;;;;;;;9.52;6.03;;;10.90;84.10;;;;;;5095054;28;20028;-35
2021/05/29 02:09:06;;;;;;;8.77;6.55;;;10.80;84.30;;;;;;5095014;28;20042;-36
2021/05/29 02:11:32;;;;;;;9.15;6.15;;;10.80;84.60;;;;;;5095337;28;20124;-35
2021/05/29 02:13:57;;;;;;;7.93;6.97;;;10.80;84.60;;;;;;5095022;28;20095;-35
2021/05/29 02:16:23;;;;;;;14.20;6.93;;;10.80;84.60;;;;;;5094900;28;20103;-36
2021/05/29 02:18:49;;;;;;;7.55;6.00;;;10.80;84.80;;;;;;5094816;28;20112;-36
2021/05/29 02:21:16;;;;;;;10.73;6.32;;;10.60;85.20;;;;;;5094757;28;20035;-36
2021/05/29 02:23:49;;;;;;;7.80;7.00;;;10.60;85.40;;;;;;5095275;28;20032;-35
2021/05/29 02:26:18;;;;;;;11.60;7.03;;;10.60;85.50;;;;;;5093607;28;20034;-36
2021/05/29 02:28:49;;;;;;;9.85;5.80;;;10.60;85.10;;;;;;5094738;28;20018;-36
2021/05/29 02:31:15;;;;;;;;;;;10.60;85.10;;;;;;5095338;28;20110;-35
2021/05/29 02:33:41;;;;;;;6.63;5.25;;;10.60;84.40;;;;;;5095036;28;20284;-36
2021/05/29 02:36:07;;;;;;;8.68;5.40;;;10.60;83.90;;;;;;5095168;28;20031;-36
2021/05/29 02:38:34;;;;;;;7.40;5.03;;;10.60;83.60;;;;;;5093595;28;20104;-36
2021/05/29 02:41:02;;;;;;;8.10;5.00;;;10.60;83.40;;;;;;5095092;28;20035;-35
2021/05/29 02:43:27;;;;;;;7.72;4.82;;;10.60;83.10;;;;;;5094700;28;20053;-37
2021/05/29 02:45:54;;;;;;;8.23;5.18;;;10.60;83.10;;;;;;5094610;28;20066;-36
2021/05/29 02:48:20;;;;;;;6.55;4.70;;;10.50;83.00;;;;;;5094980;28;20035;-36
2021/05/29 02:50:46;;;;;;;9.05;5.55;;;10.50;82.80;;;;;;5094480;28;20020;-35
2021/05/29 02:53:13;;;;;;;7.90;5.07;;;10.40;83.10;;;;;;5094459;28;20103;-36
2021/05/29 02:55:40;;;;;;;7.57;4.78;;;10.40;83.10;;;;;;5093265;28;20060;-36
2021/05/29 02:58:06;;;;;;;9.45;5.60;;;10.30;83.20;;;;;;5094454;28;20034;-36
2021/05/29 03:00:40;;;;;;;9.57;4.45;;;10.20;83.40;;;;;;5094292;28;20024;-35
2021/05/29 03:03:09;;;;;;;7.10;4.72;;;10.20;83.50;;;;;;5093063;28;20042;-36
2021/05/29 03:05:36;;;;;;;9.95;4.82;;;10.20;83.40;;;;;;5094219;28;20034;-36
2021/05/29 03:08:03;;;;;;;8.88;4.30;;;10.20;83.40;;;;;;5094399;28;20028;-36
2021/05/29 03:10:29;;;;;;;8.70;5.22;;;10.20;83.30;;;;;;5094461;28;20376;-36
2021/05/29 03:12:55;;;;;;;5.32;4.28;;;10.20;83.30;;;;;;5094046;28;20024;-36
2021/05/29 03:15:24;;;;;;;8.73;4.50;;;10.10;83.30;;;;;;5094025;28;20031;-36
2021/05/29 03:17:50;;;;;;;6.15;4.45;;;10.10;83.30;;;;;;5094364;28;20035;-36
2021/05/29 03:20:20;;;;;;;9.60;4.72;;;10.10;83.20;;;;;;5092720;28;20035;-36
2021/05/29 03:22:46;;;;;;;11.33;5.17;;;10.00;83.70;;;;;;5094204;28;20559;-35
2021/05/29 03:25:13;;;;;;;7.47;3.78;;;9.90;84.00;;;;;;5094140;28;20718;-35
2021/05/29 03:27:39;;;;;;;7.85;5.18;;;9.90;84.20;;;;;;5094011;28;20024;-36
2021/05/29 03:30:08;;;;;;;6.75;4.72;;;9.90;84.20;;;;;;5093746;28;20341;-36
2021/05/29 03:32:34;;;;;;;9.98;5.40;;;9.90;84.10;;;;;;5094024;28;20021;-35
2021/05/29 03:34:59;;;;;;;10.48;4.35;;;9.90;83.90;;;;;;5093729;28;20034;-36
2021/05/29 03:37:25;;;;;;;12.25;4.38;;;9.90;84.00;;;;;;5093733;28;20028;-35
2021/05/29 03:39:51;;;;;;;7.25;4.45;;;9.80;84.20;;;;;;5093668;28;20035;-35
2021/05/29 03:42:17;;;;;;;5.57;4.25;;;9.80;84.30;;;;;;5093689;28;20356;-36
2021/05/29 03:44:42;;;;;;;7.85;5.13;;;9.80;84.70;;;;;;5093951;28;20100;-36
2021/05/29 03:47:08;;;;;;;7.30;4.72;;;9.70;84.80;;;;;;5093762;28;20020;-36
2021/05/29 03:49:34;;;;;;;9.85;4.78;;;10.00;84.30;;;;;;5093516;28;20353;-36
2021/05/29 03:51:59;;;;;;;6.40;4.60;;;9.90;84.10;;;;;;5093490;28;20472;-36
2021/05/29 03:54:25;;;;;;;8.52;5.18;;;9.90;84.10;;;;;;5092114;28;20095;-36
2021/05/29 03:56:51;;;;;;;9.05;5.20;;;9.80;84.40;;;;;;5093351;28;20408;-35
2021/05/29 03:59:17;;;;;;;6.13;4.68;;;9.80;84.30;;;;;;5093591;28;20031;-36
2021/05/29 04:01:44;;;;;;;7.32;5.03;;;9.70;84.50;;;;;;5092578;28;20115;-36
2021/05/29 04:04:10;;;;;;;12.98;5.88;;;9.70;85.00;;;;;;5093331;28;20059;-36
2021/05/29 04:06:36;;;;;;;7.85;4.72;;;9.70;85.20;;;;;;5075186;28;20028;-36
2021/05/29 04:09:07;;;;;;;12.38;5.50;;;9.50;85.60;;;;;;5091962;28;20028;-37
2021/05/29 04:11:33;;;;;;;11.00;5.57;;;9.60;85.60;;;;;;5093697;28;20020;-36
2021/05/29 04:13:59;;;;;;;11.43;5.63;;;9.60;85.60;;;;;;5080505;28;20032;-35
2021/05/29 04:16:25;;;;;;;8.32;5.82;;;9.90;85.00;;;;;;5099731;28;20107;-36
2021/05/29 04:18:51;;;;;;;11.50;5.13;;;9.80;84.30;;;;;;5099733;28;20120;-36
2021/05/29 04:21:16;;;;;;;10.35;5.57;;;9.80;85.00;;;;;;5098529;28;20421;-37
2021/05/29 04:23:42;;;;;;;6.65;5.18;;;9.80;85.00;;;;;;5100510;28;20032;-36
2021/05/29 04:26:08;;;;;;;8.95;5.60;;;9.80;84.90;;;;;;5099799;28;20085;-36
2021/05/29 04:28:35;;;;;;;12.00;5.97;;;9.90;85.00;;;;;;5099617;28;20020;-36
2021/05/29 04:31:02;;;;;;;9.90;6.60;;;9.90;84.80;;;;;;5099886;28;20115;-37
2021/05/29 04:33:28;;;;;;;7.80;5.68;;;10.00;84.50;;;;;;5099886;28;20051;-36
2021/05/29 04:35:53;;;;;;;9.52;5.57;;;10.10;84.00;;;;;;5099861;28;20062;-36
2021/05/29 04:38:19;;;;;;;7.90;5.28;;;10.20;84.10;;;;;;5099544;28;20073;-35
2021/05/29 04:40:45;;;;;;;8.60;5.28;;;10.30;83.70;;;;;;5099444;28;20115;-36
2021/05/29 04:43:11;;;;;;;8.85;6.13;;;10.30;83.40;;;;;;5099769;28;20046;-37
2021/05/29 04:45:36;;;;;;;9.00;6.25;;;10.40;83.30;;;;;;5098776;28;20039;-36
2021/05/29 04:48:02;;;;;;;11.95;5.60;;;10.40;83.30;;;;;;5099646;28;20020;-36
2021/05/29 04:50:28;;;;;;;11.05;6.07;;;10.50;83.30;;;;;;5100363;28;20016;-35
2021/05/29 04:52:53;;;;;;;9.38;5.57;;;10.50;83.40;;;;;;5099443;28;20373;-35
2021/05/29 04:55:20;;;;;;;7.65;5.35;;;10.70;83.00;;;;;;5099392;28;20047;-36
2021/05/29 04:57:46;;;;;;;9.02;6.50;;;10.80;82.60;;;;;;5099673;28;20037;-36
2021/05/29 05:00:15;;;;;;;13.15;6.50;;;10.90;82.40;;;;;;5099552;28;20479;-36
2021/05/29 05:02:41;;;;;;;11.50;7.43;;;10.80;82.60;;;;;;5099819;28;20031;-36
2021/05/29 05:05:08;;;;;;;11.13;7.80;;;10.90;82.10;;;;;;5099567;28;20124;-36
2021/05/29 05:07:34;;;;;;;13.60;7.43;;;10.90;82.20;;;;;;5099350;28;20353;-36
2021/05/29 05:10:00;;;;;;;9.85;6.72;;;10.90;82.40;;;;;;5097873;28;20394;-36
2021/05/29 05:12:26;;;;;;;11.05;6.68;;;11.10;82.10;;;;;;5099244;28;20099;-35
2021/05/29 05:14:52;;;;;;;14.50;7.60;;;11.20;81.70;;;;;;5099420;28;20353;-36
2021/05/29 05:17:17;;;;;;;18.80;7.55;;;11.10;82.00;;;;;;5099128;28;20032;-36
2021/05/29 05:19:43;;;;;;;15.88;7.25;;;11.20;82.10;;;;;;5099019;28;20020;-36
2021/05/29 05:22:09;;;;;;;12.93;8.40;;;11.20;82.10;;;;;;5097732;28;20047;-35
2021/05/29 05:24:34;;;;;;;15.18;9.77;;;11.30;82.10;;;;;;5096666;28;20040;-36
2021/05/29 05:27:00;;;;;;;10.48;8.65;;;11.30;82.50;;;;;;5095732;28;20078;-35
2021/05/29 05:29:26;;;;;;;15.30;10.23;;;11.40;82.30;;;;;;5095839;28;20384;-36
2021/05/29 05:31:51;;;;;;;17.20;11.63;;;11.40;82.60;;;;;;5094430;28;20028;-35
2021/05/29 05:34:17;;;;;;;20.52;12.90;;;11.50;82.80;;;;;;5095675;28;20024;-36
2021/05/29 05:36:43;;;;;;;17.35;11.98;;;11.40;83.10;;;;;;5095543;28;20103;-36
2021/05/29 05:39:13;;;;;;;19.65;12.75;;;11.40;83.60;;;;;;5095867;28;20051;-36
2021/05/29 05:41:39;;;;;;;20.43;11.07;;;11.50;83.40;;;;;;5095784;28;20569;-37
2021/05/29 05:44:06;;;;;;;21.98;13.77;;;11.50;83.30;;;;;;5095418;28;20032;-36
2021/05/29 05:46:34;;;;;;;17.85;11.77;;;11.50;83.40;;;;;;5096034;28;20455;-37
2021/05/29 05:49:00;;;;;;;20.15;11.90;;;11.60;83.20;;;;;;5095580;28;20089;-43
2021/05/29 05:51:26;;;;;;;17.80;11.95;;;11.70;83.10;;;;;;5095354;28;20027;-36
2021/05/29 05:53:52;;;;;;;17.17;12.88;;;11.60;83.30;;;;;;5096098;28;20388;-36
2021/05/29 05:56:25;;;;;;;19.10;11.73;;;11.80;83.20;;;;;;5094888;28;20052;-36
2021/05/29 05:58:53;;;;;;;21.80;13.40;;;11.80;82.70;;;;;;5095665;28;20028;-36
2021/05/29 06:01:19;;;;;;;23.98;13.23;;;12.00;82.00;;;;;;5095356;28;20020;-36
2021/05/29 06:03:45;;;;;;;23.63;14.43;;;12.00;82.00;;;;;;5095005;28;20047;-36
2021/05/29 06:06:11;;;;;;;23.65;14.32;;;11.80;82.00;;;;;;5095697;28;20059;-36
2021/05/29 06:08:37;;;;;;;23.92;14.45;;;12.10;81.50;;;;;;5095032;28;20024;-36
2021/05/29 06:11:02;;;;;;;21.52;13.32;;;12.00;81.60;;;;;;5094981;28;20501;-35
2021/05/29 06:21:36;;;;;;;17.55;11.57;;;12.20;80.80;;;;;;5095104;28;20418;-36
2021/05/29 06:24:03;;;;;;;16.10;10.95;;;12.50;79.90;;;;;;5094621;28;20024;-36
2021/05/29 06:26:28;;;;;;;21.45;10.43;;;12.60;78.90;;;;;;5094329;28;20021;-36
2021/05/29 06:28:54;;;;;;;23.35;11.65;;;12.60;78.30;;;;;;5094706;28;20031;-36
2021/05/29 06:31:20;;;;;;;19.10;10.85;;;12.50;78.90;;;;;;5095045;28;20364;-36
2021/05/29 06:33:46;;;;;;;19.25;11.18;;;12.60;78.70;;;;;;5094323;28;20101;-36
2021/05/29 06:36:11;;;;;;;17.52;12.20;;;12.50;79.00;;;;;;5094007;28;20047;-36
2021/05/29 06:38:37;;;;;;;19.52;11.43;;;12.60;78.90;;;;;;5094303;28;20031;-36
2021/05/29 06:41:03;;;;;;;17.98;11.75;;;12.50;78.60;;;;;;5094161;28;20024;-35
2021/05/29 06:43:29;;;;;;;20.20;11.18;;;12.50;79.00;;;;;;5092971;28;20097;-36
2021/05/29 06:45:55;;;;;;;18.23;10.68;;;12.60;78.40;;;;;;5094177;28;20073;-36
2021/05/29 06:48:21;;;;;;;18.35;12.68;;;12.70;78.60;;;;;;5094529;28;20024;-37
2021/05/29 06:50:52;;;;;;;17.17;10.38;;;13.10;77.10;;;;;;5092507;28;20388;-36
2021/05/29 06:53:22;;;;;;;;;;;13.30;76.30;;;;;;5094802;28;20371;-36
2021/05/29 06:58:41;;;;;;;21.63;11.60;;;13.10;76.80;;;;;;5094126;28;20105;-35
2021/05/29 07:01:07;;;;;;;19.50;10.25;;;13.10;77.20;;;;;;5094105;28;20020;-35
2021/05/29 07:03:32;;;;;;;15.55;10.52;;;13.10;77.20;;;;;;5093734;28;20109;-36
2021/05/29 07:05:58;;;;;;;20.73;11.50;;;13.30;76.40;;;;;;5093761;28;20388;-35
2021/05/29 07:08:24;;;;;;;16.17;9.57;;;13.60;75.00;;;;;;5093665;28;20559;-35
2021/05/29 07:10:50;;;;;;;17.58;10.82;;;13.80;73.90;;;;;;5093764;28;20028;-36
2021/05/29 07:13:15;;;;;;;20.88;12.48;;;14.00;73.00;;;;;;5093839;28;20427;-35
2021/05/29 07:15:41;;;;;;;20.42;11.23;;;14.10;72.90;;;;;;5093438;28;20021;-36
2021/05/29 07:18:10;;;;;;;17.90;11.32;;;14.30;72.30;;;;;;5093615;28;20032;-35
2021/05/29 07:20:38;;;;;;;14.73;10.10;;;14.30;71.40;;;;;;5093800;28;20480;-35
2021/05/29 07:23:04;;;;;;;18.52;10.02;;;14.50;71.30;;;;;;5093286;28;20028;-35
2021/05/29 07:25:30;;;;;;;13.73;10.02;;;14.60;70.00;;;;;;5093136;28;20024;-35
2021/05/29 07:27:59;;;;;;;15.07;9.23;;;15.10;67.80;;;;;;5093709;28;20024;-36
2021/05/29 07:30:26;;;;;;;16.95;8.63;;;16.20;65.00;;;;;;5091975;28;20027;-36
2021/05/29 07:32:52;;;;;;;12.20;8.57;;;16.60;62.50;;;;;;5093479;28;20020;-36
2021/05/29 07:35:18;;;;;;;11.00;8.18;;;17.00;60.80;;;;;;5092954;28;20039;-36
2021/05/29 07:37:43;;;;;;;14.85;8.15;;;17.00;60.60;;;;;;5093666;28;20079;-36
2021/05/29 07:40:10;;;;;;;14.75;8.60;;;16.50;62.80;;;;;;5093655;28;20063;-36
2021/05/29 07:42:36;;;;;;;10.02;7.53;;;16.10;63.10;;;;;;5092199;28;20024;-36
2021/05/29 07:45:04;;;;;;;12.60;9.32;;;15.50;64.10;;;;;;5093269;28;20093;-36
2021/05/29 07:47:29;;;;;;;13.88;9.13;;;15.20;66.10;;;;;;5092406;28;20031;-36
2021/05/29 07:49:55;;;;;;;12.68;9.00;;;14.90;66.90;;;;;;5092800;28;20464;-35
2021/05/29 07:52:21;;;;;;;14.25;7.50;;;14.90;66.70;;;;;;5092646;28;20019;-36
2021/05/29 07:54:46;;;;;;;15.65;7.63;;;15.50;65.90;;;;;;5093139;28;20050;-36
2021/05/29 07:57:12;;;;;;;10.85;8.73;;;16.60;60.50;;;;;;5092581;28;20093;-37
2021/05/29 07:59:39;;;;;;;12.38;8.45;;;16.30;62.40;;;;;;5093060;28;20028;-36
2021/05/29 08:02:05;;;;;;;10.30;8.25;;;14.80;66.20;;;;;;5093021;28;20153;-36
2021/05/29 08:04:32;;;;;;;12.32;8.18;;;15.00;67.10;;;;;;5091495;28;20081;-36
2021/05/29 08:06:58;;;;;;;15.15;7.75;;;15.70;63.60;;;;;;5092555;28;20099;-36
2021/05/29 08:09:24;;;;;;;9.57;7.20;;;16.90;60.20;;;;;;5092727;28;20480;-36
2021/05/29 08:11:50;;;;;;;10.07;6.97;;;17.30;57.30;;;;;;5092924;28;20464;-37
2021/05/29 08:14:16;;;;;;;12.07;6.88;;;16.80;59.10;;;;;;5093903;28;20094;-36
2021/05/29 08:16:43;;;;;;;13.25;7.20;;;16.60;59.70;;;;;;5092898;28;20051;-37
2021/05/29 08:19:11;;;;;;;15.45;8.30;;;16.90;58.40;;;;;;5092691;28;20027;-37
2021/05/29 08:21:41;;;;;;;11.82;8.73;;;17.10;58.90;;;;;;5092912;28;20028;-37
2021/05/29 08:24:07;;;;;;;13.43;8.27;;;16.40;60.80;;;;;;5092596;28;20055;-38
2021/05/29 08:26:35;;;;;;;12.20;7.63;;;15.80;62.30;;;;;;5092506;28;20028;-37
2021/05/29 08:29:01;;;;;;;12.32;7.50;;;15.80;63.40;;;;;;5092377;28;20043;-37
2021/05/29 08:31:27;;;;;;;10.05;7.80;;;16.50;61.10;;;;;;5092909;28;20028;-37
2021/05/29 08:33:53;;;;;;;11.77;7.40;;;16.00;62.60;;;;;;5092694;28;20452;-37
2021/05/29 08:36:18;;;;;;;12.02;8.13;;;15.70;63.30;;;;;;5092643;28;20024;-37
2021/05/29 08:38:45;;;;;;;12.77;8.02;;;15.60;64.10;;;;;;5092296;28;20103;-36
2021/05/29 08:41:11;;;;;;;14.23;7.80;;;15.90;62.90;;;;;;5092305;28;20391;-36
2021/05/29 08:43:37;;;;;;;12.82;7.28;;;16.00;62.60;;;;;;5092492;28;20028;-37
2021/05/29 08:46:04;;;;;;;16.08;8.57;;;16.50;60.90;;;;;;5092177;28;20082;-37
2021/05/29 08:48:30;;;;;;;13.98;9.18;;;16.80;59.40;;;;;;5093281;28;20028;-36
2021/05/29 08:53:46;;;;;;;14.52;8.15;;;16.00;60.60;;;;;;5092445;28;20074;-37
2021/05/29 08:56:12;;;;;;;15.60;9.82;;;15.60;62.40;;;;;;5092017;28;20069;-36
2021/05/29 08:58:39;;;;;;;13.20;8.00;;;15.50;63.70;;;;;;5092833;28;20513;-36
2021/05/29 09:01:05;;;;;;;12.23;8.43;;;15.70;63.00;;;;;;5096332;28;20081;-36
2021/05/29 09:03:48;;;;;;;14.20;8.43;;;15.10;64.10;;;;;;5096099;28;20025;-36
2021/05/29 09:06:18;;;;;;;12.70;8.13;;;15.30;64.20;;;;;;5094702;28;20024;-37
2021/05/29 09:08:50;;;;;;;11.10;7.18;;;15.70;62.90;;;;;;5096318;28;20024;-37
2021/05/29 09:11:53;;;;;;;12.32;7.65;;;17.00;58.70;;;;;;5077866;28;20029;-36
2021/05/29 09:14:25;;;;;;;8.23;6.38;;;16.90;57.60;;;;;;5094859;28;20020;-37
2021/05/29 09:17:10;;;;;;;11.95;7.57;;;17.50;56.70;;;;;;5096629;28;20115;-37
2021/05/29 09:20:09;;;;;;;13.07;6.95;;;17.30;56.40;;;;;;5095843;28;20030;-36
2021/05/29 09:22:35;;;;;;;13.15;6.60;;;16.50;59.20;;;;;;5062493;28;20032;-36
2021/05/29 09:25:06;;;;;;;11.75;6.75;;;17.00;57.30;;;;;;5095787;28;20111;-37
2021/05/29 09:27:34;;;;;;;8.65;6.63;;;17.50;55.00;;;;;;5095511;28;20027;-37
2021/05/29 09:30:01;;;;;;;10.88;6.25;;;16.80;56.90;;;;;;5095718;28;20034;-36
2021/05/29 09:32:27;;;;;;;11.32;6.88;;;16.60;58.20;;;;;;5095425;28;20024;-37
2021/05/29 09:34:53;;;;;;;7.55;6.07;;;16.70;57.60;;;;;;5095618;28;20020;-37
2021/05/29 09:37:23;;;;;;;9.27;6.05;;;17.30;56.30;;;;;;5095367;28;20028;-37
2021/05/29 09:40:01;;;;;;;7.10;5.55;;;17.80;53.90;;;;;;5094354;28;20051;-36
2021/05/29 09:42:38;;;;;;;10.13;6.13;;;17.20;57.00;;;;;;5095740;28;20028;-37
2021/05/29 09:45:27;;;;;;;7.78;5.80;;;17.30;55.60;;;;;;5095309;28;20079;-36
2021/05/29 09:48:15;;;;;;;8.00;5.90;;;17.00;57.60;;;;;;5095108;28;20372;-37
2021/05/29 09:51:10;;;;;;;9.65;6.15;;;17.80;55.50;;;;;;5093869;28;20020;-36
2021/05/29 09:53:50;;;;;;;11.25;6.80;;;17.10;56.50;;;;;;5094645;28;20020;-38
2021/05/29 09:56:28;;;;;;;10.63;6.60;;;17.20;55.80;;;;;;5095255;28;20044;-37
2021/05/29 09:59:01;;;;;;;7.60;6.28;;;17.90;53.30;;;;;;5095451;28;20333;-37
2021/05/29 10:01:41;;;;;;;10.40;6.47;;;18.60;52.60;;;;;;5095182;28;20043;-37
2021/05/29 10:04:07;;;;;;;13.70;7.22;;;19.10;49.30;;;;;;5096000;28;20030;-37
2021/05/29 10:06:34;;;;;;;10.05;6.72;;;18.10;51.40;;;;;;5094772;28;20039;-37
2021/05/29 10:09:00;;;;;;;8.77;6.10;;;17.60;53.10;;;;;;5094956;28;20066;-36
2021/05/29 10:11:27;;;;;;;10.95;6.05;;;16.80;54.30;;;;;;5094175;28;20066;-37
2021/05/29 10:13:53;;;;;;;11.20;7.88;;;17.00;54.90;;;;;;5094865;28;20032;-38
2021/05/29 10:16:21;;;;;;;6.90;5.85;;;17.70;54.80;;;;;;5094687;28;20016;-37
2021/05/29 10:18:53;;;;;;;10.10;5.72;;;18.20;51.10;;;;;;5094732;28;20020;-38
2021/05/29 10:21:20;;;;;;;11.27;5.90;;;17.50;52.60;;;;;;5094900;28;20131;-38
2021/05/29 10:23:47;;;;;;;7.80;5.82;;;18.40;50.50;;;;;;5094835;28;20028;-37
2021/05/29 10:26:17;;;;;;;9.25;6.15;;;17.90;52.30;;;;;;5094944;28;20039;-36
2021/05/29 10:28:45;;;;;;;10.55;6.65;;;17.30;53.50;;;;;;5094666;28;20070;-36
2021/05/29 10:31:12;;;;;;;10.73;6.57;;;17.60;54.60;;;;;;5094743;28;20024;-36
2021/05/29 10:33:45;;;;;;;6.82;4.80;;;19.10;50.70;;;;;;5093042;28;20048;-37
2021/05/29 10:36:37;;;;;;;7.63;4.75;;;19.40;47.90;;;;;;5094600;28;20031;-37
2021/05/29 10:39:09;;;;;;;7.07;5.03;;;19.60;48.10;;;;;;5097355;28;20051;-38
2021/05/29 10:41:54;;;;;;;6.30;4.85;;;19.30;47.90;;;;;;5097977;28;20085;-35
2021/05/29 10:44:27;;;;;;;8.43;5.30;;;19.30;47.80;;;;;;5094493;28;20024;-35
2021/05/29 10:47:09;;;;;;;7.63;5.05;;;19.60;45.80;;;;;;5094022;28;20463;-35
2021/05/29 10:49:54;;;;;;;9.45;5.15;;;21.10;43.20;;;;;;5095440;28;20504;-36
2021/05/29 10:52:33;;;;;;;6.80;4.47;;;19.70;46.10;;;;;;5094235;28;20098;-36
2021/05/29 10:55:14;;;;;;;12.52;5.32;;;18.70;48.40;;;;;;5093481;28;20068;-36
2021/05/29 10:58:05;;;;;;;7.32;4.65;;;19.00;49.10;;;;;;5095283;28;20028;-37
2021/05/29 11:00:43;;;;;;;11.98;5.45;;;19.10;49.20;;;;;;5086263;28;20032;-38
2021/05/29 11:03:17;;;;;;;5.80;4.32;;;20.00;45.80;;;;;;5093993;28;20376;-37
2021/05/29 11:05:44;;;;;;;6.10;4.28;;;20.80;44.00;;;;;;5093873;28;20047;-37
2021/05/29 11:08:44;;;;;;;9.25;5.90;;;20.20;45.40;;;;;;5093708;28;20035;-37
2021/05/29 11:14:16;;;;;;;6.68;4.93;;;18.10;51.20;;;;;;5093519;28;20047;-36
2021/05/29 11:16:54;;;;;;;6.53;5.18;;;17.50;51.80;;;;;;5093746;28;20479;-37
2021/05/29 11:19:28;;;;;;;7.47;4.93;;;16.90;54.20;;;;;;5093768;28;20032;-36
2021/05/29 11:22:18;;;;;;;5.95;4.97;;;18.30;50.40;;;;;;5093053;28;20103;-37
2021/05/29 11:24:59;;;;;;;13.25;4.57;;;19.10;47.50;;;;;;5091434;28;20024;-37
2021/05/29 11:27:31;;;;;;;8.18;4.18;;;19.90;46.00;;;;;;5096336;28;20039;-35
2021/05/29 11:30:00;;;;;;;6.85;5.15;;;20.30;45.00;;;;;;5093013;28;20020;-35
2021/05/29 11:35:41;;;;;;;9.20;5.45;;;18.10;49.70;;;;;;5094043;28;20023;-36
2021/05/29 11:40:43;;;;;;;5.93;5.03;;;18.70;49.80;;;;;;5094744;28;20024;-37
2021/05/29 11:43:10;;;;;;;10.13;6.07;;;19.60;47.20;;;;;;5093603;28;20032;-36
2021/05/29 11:45:36;;;;;;;7.82;5.03;;;20.30;45.70;;;;;;5093435;28;20024;-37
2021/05/29 11:48:03;;;;;;;5.93;4.70;;;19.50;47.40;;;;;;5093436;28;20468;-35
2021/05/29 11:50:29;;;;;;;7.88;5.05;;;19.00;48.20;;;;;;5093263;28;20475;-36
2021/05/29 11:52:55;;;;;;;6.28;5.32;;;18.20;49.70;;;;;;5093146;28;20027;-35
2021/05/29 11:55:21;;;;;;;8.60;5.57;;;18.20;50.10;;;;;;5093156;28;20028;-35
2021/05/29 11:58:01;;;;;;;9.63;5.25;;;19.20;47.40;;;;;;5093248;28;20036;-35
2021/05/29 12:00:29;;;;;;;9.18;6.40;;;19.60;46.30;;;;;;5092769;28;20031;-36
2021/05/29 12:02:55;;;;;;;8.77;6.15;;;19.50;46.80;;;;;;5093380;28;20024;-35
2021/05/29 12:05:22;;;;;;;8.02;6.15;;;19.60;47.10;;;;;;5093290;28;20376;-36
2021/05/29 12:08:00;;;;;;;6.60;5.30;;;19.00;48.20;;;;;;5092917;28;20114;-35
2021/05/29 12:10:42;;;;;;;10.15;5.20;;;18.80;47.50;;;;;;5093217;28;20422;-36
2021/05/29 12:13:07;;;;;;;9.32;5.57;;;19.60;46.70;;;;;;5093167;28;20024;-35
2021/05/29 12:15:33;;;;;;;7.22;6.38;;;19.90;45.30;;;;;;5093134;28;20021;-36
2021/05/29 12:18:03;;;;;;;9.13;6.45;;;19.80;46.00;;;;;;5093178;28;20036;-36
2021/05/29 12:20:28;;;;;;;6.82;5.07;;;20.80;44.20;;;;;;5093400;28;20028;-37
2021/05/29 12:23:02;;;;;;;9.27;6.45;;;21.40;43.10;;;;;;5093094;28;20360;-36
2021/05/29 12:25:29;;;;;;;8.23;6.50;;;19.70;46.80;;;;;;5093040;28;20062;-36
2021/05/29 12:27:55;;;;;;;8.30;5.47;;;18.50;50.30;;;;;;5093127;28;20032;-36
2021/05/29 12:30:24;;;;;;;8.48;5.53;;;19.40;48.40;;;;;;5093153;28;20472;-36
2021/05/29 12:32:50;;;;;;;7.40;5.63;;;20.00;46.20;;;;;;5092773;28;20032;-36
2021/05/29 12:35:40;;;;;;;10.07;6.70;;;20.00;45.70;;;;;;5095884;28;20356;-38
2021/05/29 12:38:20;;;;;;;10.73;5.90;;;20.20;45.80;;;;;;5095646;28;20162;-36
2021/05/29 12:41:11;;;;;;;9.30;6.30;;;18.40;50.20;;;;;;5096350;28;20544;-36
2021/05/29 12:43:38;;;;;;;10.02;6.00;;;18.20;51.10;;;;;;5097711;28;20024;-37
2021/05/29 12:46:05;;;;;;;8.65;6.13;;;18.70;49.80;;;;;;5096439;28;20024;-37
2021/05/29 12:48:31;;;;;;;7.97;5.70;;;18.90;48.10;;;;;;5099627;28;20074;-37
2021/05/29 12:51:08;;;;;;;8.55;6.07;;;19.70;45.80;;;;;;5099332;28;20468;-35
2021/05/29 12:53:37;;;;;;;10.68;6.80;;;20.30;44.60;;;;;;5097121;28;20016;-36
2021/05/29 12:56:14;;;;;;;8.73;6.15;;;21.20;42.60;;;;;;5097098;28;20085;-35
2021/05/29 12:58:40;;;;;;;13.68;8.02;;;21.30;43.30;;;;;;5097792;28;20359;-36
2021/05/29 13:09:27;;;;;;;7.85;6.28;;;19.80;46.60;;;;;;5096648;28;20081;-36
2021/05/29 13:11:53;;;;;;;10.70;6.28;;;19.10;48.50;;;;;;5095248;28;20016;-35
2021/05/29 13:14:29;;;;;;;8.13;5.55;;;20.10;46.10;;;;;;5096239;28;20016;-36
2021/05/29 13:17:00;;;;;;;10.88;5.55;;;21.20;43.90;;;;;;5095930;28;20306;-36
2021/05/29 13:19:29;;;;;;;9.68;6.70;;;21.60;42.80;;;;;;5096563;28;20047;-36
2021/05/29 13:21:56;;;;;;;8.93;4.63;;;21.30;42.90;;;;;;5094649;28;20537;-36